Garden City, New York
Current Conditions -  °F | °C
As of 1:51 AM on Thursday 27 Nov 2014 (Local Time) from KJFK Reporting Station
Overcast Overcast  
Wind Chill: -2°   Ceiling: 7000
Heat Index:   Visibility: 10mi
Dew Point: -1°   Wind: 13mph
Humidity: 79%   Direction: 320°NW
Pressure: 29.89"   Gusts: NA
Location:  40.73°N, 73.64°W
Report Text: KJFK 270651Z 32011KT 10SM FEW017 SCT045 OVC070 03/M01 A2989 RMK AO2 RAE06 SLP122 P0000 T00281006 $
Loading
Personal Weather Stations






























Interactive Weather Map New forecast layout! Learn more

10-Day Weather Forecast

Advertisements
Track Severe Weather on mobile